Capitol Logistics 236


KIAD
Washington Dulles International Airport
Dulles, Virginia, US
KRIV
March Air Reserve Base
Riverside, California, US

Route Details

Aircraft Information
Primary: Boeing 767-300BDSF
Backup: Not Available
Route Data
Distance: 1970nm
Sched. Duration: 5h 29m
Avg. Duration: 5h 27m (-2m)
Times Flown: 5
Recm'd Route: BUNZZ3 RAMAY Q72 HACKS J149 EMPTY J80 SAAGS J80 MCI J24 SLN J102 LAA J102 GUP J96 PKE J78 TRM ARKOE1
Planned Altitude: 34,000ft
Origin Wx: KIAD 280052Z 34009KT 10SM OVC038 02/M05 A3013 RMK AO2 SLP204 T00221050
Dest. Wx: KRIV 261956Z AUTO 17003KT 10SM CLR 10/M02 A2999 RMK AO2 SLP160 T00951025
Notes:

Financial History
Total Freight: 416,001lbs
Average Load: 83,200lbs/flt
Fuel Used: 283,261lbs
Avg. Fuel Used: 56,652lbs/flt
Fuel Expense: $365,407
Avg. Fuel Expense: $73,081
Avg. Fuel Cost: $1.29/lbs
Total Gross Income: $690,562
Pilot Pay: $1,245
Total Expenses: $74,841
Total Revenue: $243,128
Average Revenue: $138,112.33